Time,TemperatureF,DewpointF,PressureIn,WindDirection,WindDirectionDegrees,WindSpeedMPH,WindSpeedGustMPH,Humidity,HourlyPrecipIn,Conditions,Clouds,dailyrainin,SoftwareType,DateUTC
2014-03-25 08:07:00,11.5,0.3,30.40,North,-999,-999.0,-999.0,60,-99.99,,,0.00,meteohub,2014-03-25 13:07:00,
2014-03-25 08:08:00,11.5,0.3,30.40,North,-999,-999.0,-999.0,60,-99.99,,,0.00,meteohub,2014-03-25 13:08:00,
2014-03-25 08:13:00,11.7,0.5,30.41,NNW,344,5.0,-999.0,60,0.00,,,0.00,meteohub,2014-03-25 13:13:00,
2014-03-25 08:18:00,11.8,1.0,30.41,North,0,7.0,10.0,61,0.00,,,0.00,meteohub,2014-03-25 13:18:00,
2014-03-25 08:23:00,11.8,1.0,30.41,NNW,345,4.0,10.0,61,0.00,,,0.00,meteohub,2014-03-25 13:23:00,
2014-03-25 08:28:00,12.0,1.2,30.41,NNE,16,9.0,11.0,61,0.00,,,0.00,meteohub,2014-03-25 13:28:00,
2014-03-25 08:33:00,12.0,1.2,30.41,North,355,6.0,17.0,61,0.00,,,0.00,meteohub,2014-03-25 13:33:00,
2014-03-25 08:38:00,12.4,1.8,30.41,NNE,13,4.0,17.0,62,0.00,,,0.00,meteohub,2014-03-25 13:38:00,
2014-03-25 08:43:00,12.6,1.9,30.41,North,0,10.0,17.0,62,0.00,,,0.00,meteohub,2014-03-25 13:43:00,
2014-03-25 08:48:00,12.7,2.1,30.41,NNE,24,7.0,16.0,62,0.00,,,0.00,meteohub,2014-03-25 13:48:00,
2014-03-25 08:53:00,12.7,2.1,30.42,North,9,14.0,15.0,62,0.00,,,0.00,meteohub,2014-03-25 13:53:00,
2014-03-25 08:58:00,12.7,1.4,30.41,NNE,30,15.0,15.0,60,0.00,,,0.00,meteohub,2014-03-25 13:58:00,
2014-03-25 09:03:00,12.7,1.8,30.41,NNE,28,7.0,20.0,61,0.00,,,0.00,meteohub,2014-03-25 14:03:00,
2014-03-25 09:08:00,12.9,1.9,30.42,NE,53,5.0,20.0,61,0.00,,,0.00,meteohub,2014-03-25 14:08:00,
2014-03-25 09:13:00,12.9,1.9,30.42,ENE,63,7.0,20.0,61,0.00,,,0.00,meteohub,2014-03-25 14:13:00,
2014-03-25 09:18:00,13.3,2.3,30.42,NE,36,7.0,18.0,61,0.00,,,0.00,meteohub,2014-03-25 14:18:00,
2014-03-25 09:23:00,13.5,2.5,30.42,NE,38,5.0,16.0,61,0.00,,,0.00,meteohub,2014-03-25 14:23:00,
2014-03-25 09:28:00,13.5,2.1,30.43,North,355,14.0,16.0,60,0.00,,,0.00,meteohub,2014-03-25 14:28:00,
2014-03-25 09:33:00,13.6,2.3,30.43,NNE,21,6.0,17.0,60,0.00,,,0.00,meteohub,2014-03-25 14:33:00,
2014-03-25 09:38:00,13.6,2.7,30.43,NNE,30,6.0,17.0,61,0.00,,,0.00,meteohub,2014-03-25 14:38:00,
2014-03-25 09:43:00,13.8,2.5,30.43,NE,45,14.0,17.0,60,0.00,,,0.00,meteohub,2014-03-25 14:43:00,
2014-03-25 09:48:00,13.8,2.5,30.43,NE,44,9.0,17.0,60,0.00,,,0.00,meteohub,2014-03-25 14:48:00,
2014-03-25 09:53:00,14.2,3.2,30.43,North,0,11.0,18.0,61,0.00,,,0.00,meteohub,2014-03-25 14:53:00,
2014-03-25 09:58:00,14.4,3.0,30.44,NNE,28,12.0,18.0,60,0.00,,,0.00,meteohub,2014-03-25 14:58:00,
2014-03-25 10:03:00,14.5,3.6,30.44,NNE,16,14.0,18.0,61,0.00,,,0.00,meteohub,2014-03-25 15:03:00,
2014-03-25 10:08:00,14.4,3.0,30.44,North,0,12.0,21.0,60,0.00,,,0.00,meteohub,2014-03-25 15:08:00,
2014-03-25 10:13:00,14.5,3.6,30.44,North,0,10.0,21.0,61,0.00,,,0.00,meteohub,2014-03-25 15:13:00,
2014-03-25 10:18:00,14.9,3.6,30.44,North,355,4.0,19.0,60,0.00,,,0.00,meteohub,2014-03-25 15:18:00,
2014-03-25 10:23:00,15.3,4.3,30.44,NNE,25,22.0,22.0,61,0.00,,,0.00,meteohub,2014-03-25 15:23:00,
2014-03-25 10:28:00,15.1,3.4,30.43,NNE,20,11.0,18.0,59,0.00,,,0.00,meteohub,2014-03-25 15:28:00,
2014-03-25 10:34:00,15.3,3.9,30.44,NNE,33,6.0,22.0,60,0.00,,,0.00,meteohub,2014-03-25 15:34:00,
2014-03-25 10:39:00,15.4,4.1,30.43,NNW,337,9.0,22.0,60,0.00,,,0.00,meteohub,2014-03-25 15:39:00,
2014-03-25 10:44:00,15.6,3.6,30.44,NNE,29,11.0,17.0,58,0.00,,,0.00,meteohub,2014-03-25 15:44:00,
2014-03-25 10:49:00,15.6,3.6,30.44,NNE,24,6.0,16.0,58,0.00,,,0.00,meteohub,2014-03-25 15:49:00,
2014-03-25 10:54:00,15.6,3.9,30.45,NNE,21,14.0,17.0,59,0.00,,,0.00,meteohub,2014-03-25 15:54:00,
2014-03-25 10:59:00,16.0,4.1,30.45,NNE,19,6.0,17.0,59,0.00,,,0.00,meteohub,2014-03-25 15:59:00,
2014-03-25 11:04:00,16.5,5.0,30.45,NW,322,6.0,17.0,60,0.00,,,0.00,meteohub,2014-03-25 16:04:00,
2014-03-25 11:09:00,16.5,4.3,30.45,North,11,7.0,15.0,58,0.00,,,0.00,meteohub,2014-03-25 16:09:00,
2014-03-25 11:14:00,16.3,3.4,30.45,North,9,4.0,18.0,56,0.00,,,0.00,meteohub,2014-03-25 16:14:00,
2014-03-25 11:19:00,16.5,4.3,30.44,NE,48,6.0,18.0,58,0.00,,,0.00,meteohub,2014-03-25 16:19:00,
2014-03-25 11:24:00,17.2,5.0,30.44,NNW,338,7.0,18.0,58,0.00,,,0.00,meteohub,2014-03-25 16:24:00,
2014-03-25 11:29:00,17.1,3.7,30.45,North,355,10.0,18.0,55,0.00,,,0.00,meteohub,2014-03-25 16:29:00,
2014-03-25 11:34:00,17.1,4.1,30.44,NE,38,12.0,21.0,56,0.00,,,0.00,meteohub,2014-03-25 16:34:00,
2014-03-25 11:39:00,17.1,3.7,30.44,North,5,11.0,21.0,55,0.00,,,0.00,meteohub,2014-03-25 16:39:00,
2014-03-25 11:44:00,17.2,3.9,30.44,NNE,14,5.0,21.0,55,0.00,,,0.00,meteohub,2014-03-25 16:44:00,
2014-03-25 11:49:00,17.4,4.5,30.44,NNE,29,11.0,17.0,56,0.00,,,0.00,meteohub,2014-03-25 16:49:00,
2014-03-25 11:54:00,17.8,5.2,30.43,NE,44,10.0,17.0,57,0.00,,,0.00,meteohub,2014-03-25 16:54:00,
2014-03-25 11:59:00,18.1,5.0,30.43,NE,38,5.0,16.0,56,0.00,,,0.00,meteohub,2014-03-25 16:59:00,
2014-03-25 12:04:00,18.0,4.5,30.43,NNE,20,2.0,15.0,55,0.00,,,0.00,meteohub,2014-03-25 17:04:00,
2014-03-25 12:09:00,18.1,4.3,30.43,NNW,348,6.0,15.0,54,0.00,,,0.00,meteohub,2014-03-25 17:09:00,
2014-03-25 12:14:00,18.1,3.6,30.43,NE,36,10.0,15.0,52,0.00,,,0.00,meteohub,2014-03-25 17:14:00,
2014-03-25 12:19:00,18.1,3.9,30.43,NNW,329,6.0,16.0,53,0.00,,,0.00,meteohub,2014-03-25 17:19:00,
2014-03-25 12:24:00,18.7,4.8,30.43,NNW,340,5.0,16.0,54,0.00,,,0.00,meteohub,2014-03-25 17:24:00,
2014-03-25 12:29:00,18.9,4.6,30.43,NNE,13,9.0,16.0,53,0.00,,,0.00,meteohub,2014-03-25 17:29:00,
2014-03-25 12:34:00,18.5,3.7,30.43,NE,42,3.0,18.0,52,0.00,,,0.00,meteohub,2014-03-25 17:34:00,
2014-03-25 12:39:00,19.0,4.6,30.42,NW,325,3.0,18.0,53,0.00,,,0.00,meteohub,2014-03-25 17:39:00,
2014-03-25 12:44:00,19.6,4.8,30.42,NNE,32,9.0,18.0,52,0.00,,,0.00,meteohub,2014-03-25 17:44:00,
2014-03-25 12:49:00,19.0,3.9,30.43,North,0,4.0,15.0,51,0.00,,,0.00,meteohub,2014-03-25 17:49:00,
2014-03-25 12:54:00,19.2,3.6,30.42,NNE,22,13.0,20.0,50,0.00,,,0.00,meteohub,2014-03-25 17:54:00,
2014-03-25 12:59:00,19.0,3.9,30.42,North,5,13.0,20.0,51,0.00,,,0.00,meteohub,2014-03-25 17:59:00,
2014-03-25 13:04:00,19.9,4.6,30.42,North,9,14.0,20.0,51,0.00,,,0.00,meteohub,2014-03-25 18:04:00,
2014-03-25 13:09:00,20.1,5.4,30.42,NNW,333,13.0,18.0,52,0.00,,,0.00,meteohub,2014-03-25 18:09:00,
2014-03-25 13:14:00,20.5,4.8,30.42,NNE,18,10.0,19.0,50,0.00,,,0.00,meteohub,2014-03-25 18:14:00,
2014-03-25 13:19:00,20.1,4.8,30.42,NE,40,9.0,20.0,51,0.00,,,0.00,meteohub,2014-03-25 18:19:00,
2014-03-25 13:25:00,19.8,5.4,30.41,North,5,3.0,20.0,53,0.00,,,0.00,meteohub,2014-03-25 18:25:00,
2014-03-25 13:30:00,19.9,5.2,30.41,North,0,9.0,20.0,52,0.00,,,0.00,meteohub,2014-03-25 18:30:00,
2014-03-25 13:35:00,20.1,5.4,30.41,NNW,338,8.0,18.0,52,0.00,,,0.00,meteohub,2014-03-25 18:35:00,
2014-03-25 13:40:00,21.0,6.1,30.41,NNE,22,15.0,16.0,52,0.00,,,0.00,meteohub,2014-03-25 18:40:00,
2014-03-25 13:45:00,20.7,5.9,30.40,North,5,10.0,17.0,52,0.00,,,0.00,meteohub,2014-03-25 18:45:00,
2014-03-25 13:50:00,20.8,6.4,30.41,NNW,342,9.0,17.0,53,0.00,,,0.00,meteohub,2014-03-25 18:50:00,
2014-03-25 13:55:00,20.5,5.7,30.40,NNW,346,6.0,17.0,52,0.00,,,0.00,meteohub,2014-03-25 18:55:00,
2014-03-25 14:00:00,20.8,5.5,30.40,North,0,6.0,15.0,51,0.00,,,0.00,meteohub,2014-03-25 19:00:00,
2014-03-25 14:05:00,20.8,5.9,30.40,NNW,327,7.0,15.0,52,0.00,,,0.00,meteohub,2014-03-25 19:05:00,
2014-03-25 14:10:00,21.4,5.5,30.40,North,5,7.0,15.0,50,0.00,,,0.00,meteohub,2014-03-25 19:10:00,
2014-03-25 14:15:00,21.2,5.9,30.39,North,0,5.0,15.0,51,0.00,,,0.00,meteohub,2014-03-25 19:15:00,
2014-03-25 14:20:00,21.2,5.9,30.39,North,0,12.0,17.0,51,0.00,,,0.00,meteohub,2014-03-25 19:20:00,
2014-03-25 14:25:00,21.2,6.3,30.39,NNW,342,6.0,17.0,52,0.00,,,0.00,meteohub,2014-03-25 19:25:00,
2014-03-25 14:30:00,21.6,7.2,30.39,NNW,329,10.0,17.0,53,0.00,,,0.00,meteohub,2014-03-25 19:30:00,
2014-03-25 14:35:00,21.6,6.6,30.38,NW,325,1.0,16.0,52,0.00,,,0.00,meteohub,2014-03-25 19:35:00,
2014-03-25 14:40:00,22.6,8.1,30.38,NW,307,7.0,13.0,53,0.00,,,0.00,meteohub,2014-03-25 19:40:00,
2014-03-25 14:45:00,23.0,7.5,30.38,NNW,343,7.0,15.0,51,0.00,,,0.00,meteohub,2014-03-25 19:45:00,
2014-03-25 14:50:00,22.6,7.2,30.38,NNW,337,7.0,16.0,51,0.00,,,0.00,meteohub,2014-03-25 19:50:00,
2014-03-25 14:55:00,22.5,7.5,30.38,NNE,29,10.0,16.0,52,0.00,,,0.00,meteohub,2014-03-25 19:55:00,
2014-03-25 15:00:00,22.8,7.9,30.38,NW,325,10.0,16.0,52,0.00,,,0.00,meteohub,2014-03-25 20:00:00,
2014-03-25 15:05:00,23.2,7.3,30.38,NW,326,5.0,14.0,50,0.00,,,0.00,meteohub,2014-03-25 20:05:00,
2014-03-25 15:10:00,22.5,7.0,30.38,NNW,333,10.0,16.0,51,0.00,,,0.00,meteohub,2014-03-25 20:10:00,
2014-03-25 15:15:00,22.6,7.7,30.38,North,0,5.0,16.0,52,0.00,,,0.00,meteohub,2014-03-25 20:15:00,
2014-03-25 15:20:00,22.6,7.2,30.37,NNW,340,6.0,16.0,51,0.00,,,0.00,meteohub,2014-03-25 20:20:00,
2014-03-25 15:25:00,22.3,6.4,30.38,NNE,28,6.0,13.0,50,0.00,,,0.00,meteohub,2014-03-25 20:25:00,
2014-03-25 15:30:00,22.1,7.5,30.38,NNW,331,6.0,16.0,53,0.00,,,0.00,meteohub,2014-03-25 20:30:00,
2014-03-25 15:35:00,22.3,7.3,30.38,North,0,6.0,20.0,52,0.00,,,0.00,meteohub,2014-03-25 20:35:00,
2014-03-25 15:40:00,22.5,7.5,30.38,North,0,5.0,20.0,52,0.00,,,0.00,meteohub,2014-03-25 20:40:00,
2014-03-25 15:45:00,22.3,8.2,30.37,NNW,337,10.0,20.0,54,0.00,,,0.00,meteohub,2014-03-25 20:45:00,
2014-03-25 15:50:00,21.9,7.3,30.37,North,355,10.0,18.0,53,0.00,,,0.00,meteohub,2014-03-25 20:50:00,
2014-03-25 15:55:00,21.9,7.3,30.37,North,5,11.0,18.0,53,0.00,,,0.00,meteohub,2014-03-25 20:55:00,
2014-03-25 16:00:00,21.9,7.0,30.37,NNW,340,9.0,18.0,52,0.00,,,0.00,meteohub,2014-03-25 21:00:00,
2014-03-25 16:05:00,22.3,8.2,30.37,NW,319,6.0,17.0,54,0.00,,,0.00,meteohub,2014-03-25 21:05:00,
2014-03-25 16:10:00,22.3,7.7,30.37,North,350,5.0,17.0,53,0.00,,,0.00,meteohub,2014-03-25 21:10:00,
2014-03-25 16:15:00,22.1,7.5,30.37,North,355,5.0,17.0,53,0.00,,,0.00,meteohub,2014-03-25 21:15:00,
2014-03-25 16:20:00,22.6,8.4,30.37,North,351,9.0,17.0,54,0.00,,,0.00,meteohub,2014-03-25 21:20:00,
2014-03-25 16:25:00,22.5,8.2,30.36,NW,323,9.0,17.0,54,0.00,,,0.00,meteohub,2014-03-25 21:25:00,
2014-03-25 16:30:00,22.6,8.1,30.36,NNW,338,5.0,13.0,53,0.00,,,0.00,meteohub,2014-03-25 21:30:00,
2014-03-25 16:35:00,22.6,8.1,30.36,NNW,342,6.0,13.0,53,0.00,,,0.00,meteohub,2014-03-25 21:35:00,
2014-03-25 16:40:00,22.5,7.5,30.36,North,355,6.0,13.0,52,0.00,,,0.00,meteohub,2014-03-25 21:40:00,
2014-03-25 16:45:00,22.5,8.2,30.35,NNW,337,3.0,17.0,54,0.00,,,0.00,meteohub,2014-03-25 21:45:00,
2014-03-25 16:50:00,22.6,8.4,30.35,NW,319,7.0,17.0,54,0.00,,,0.00,meteohub,2014-03-25 21:50:00,
2014-03-25 16:55:00,22.6,8.4,30.35,West,263,9.0,15.0,54,0.00,,,0.00,meteohub,2014-03-25 21:55:00,
2014-03-25 17:00:00,22.8,9.1,30.35,WNW,300,2.0,16.0,55,0.00,,,0.00,meteohub,2014-03-25 22:00:00,
2014-03-25 17:06:00,23.2,9.3,30.35,NNW,338,4.0,16.0,55,0.00,,,0.00,meteohub,2014-03-25 22:06:00,
2014-03-25 17:11:00,22.8,8.2,30.35,North,0,2.0,16.0,53,0.00,,,0.00,meteohub,2014-03-25 22:11:00,
2014-03-25 17:16:00,22.6,9.0,30.35,North,355,4.0,14.0,55,0.00,,,0.00,meteohub,2014-03-25 22:16:00,
2014-03-25 17:21:00,22.6,9.0,30.35,NNE,15,4.0,14.0,55,0.00,,,0.00,meteohub,2014-03-25 22:21:00,
2014-03-25 17:26:00,22.6,9.0,30.35,NNW,336,6.0,13.0,55,0.00,,,0.00,meteohub,2014-03-25 22:26:00,
2014-03-25 17:31:00,22.8,8.2,30.35,NNW,332,2.0,13.0,53,0.00,,,0.00,meteohub,2014-03-25 22:31:00,
2014-03-25 17:36:00,22.6,8.1,30.35,WNW,298,9.0,13.0,53,0.00,,,0.00,meteohub,2014-03-25 22:36:00,
2014-03-25 17:41:00,22.8,8.6,30.35,NW,325,5.0,15.0,54,0.00,,,0.00,meteohub,2014-03-25 22:41:00,
2014-03-25 17:46:00,22.8,8.2,30.35,North,0,7.0,15.0,53,0.00,,,0.00,meteohub,2014-03-25 22:46:00,
2014-03-25 17:51:00,23.0,8.8,30.34,WNW,300,5.0,15.0,54,0.00,,,0.00,meteohub,2014-03-25 22:51:00,
2014-03-25 17:56:00,23.2,9.0,30.34,North,355,4.0,16.0,54,0.00,,,0.00,meteohub,2014-03-25 22:56:00,
2014-03-25 18:01:00,23.2,8.6,30.35,NNW,327,3.0,16.0,53,0.00,,,0.00,meteohub,2014-03-25 23:01:00,
2014-03-25 18:06:00,22.8,8.6,30.34,NNW,334,13.0,13.0,54,0.00,,,0.00,meteohub,2014-03-25 23:06:00,
2014-03-25 18:10:00,22.8,8.6,30.34,North,349,2.0,13.0,54,0.00,,,0.00,meteohub,2014-03-25 23:10:00,
2014-03-25 18:15:00,23.4,9.5,30.34,WNW,294,7.0,14.0,55,0.00,,,0.00,meteohub,2014-03-25 23:15:00,
2014-03-25 18:20:00,24.3,10.0,30.34,North,349,5.0,14.0,54,0.00,,,0.00,meteohub,2014-03-25 23:20:00,
2014-03-25 18:25:00,23.7,9.1,30.34,North,0,4.0,13.0,53,0.00,,,0.00,meteohub,2014-03-25 23:25:00,
2014-03-25 18:30:00,23.4,8.8,30.34,NNW,334,7.0,13.0,53,0.00,,,0.00,meteohub,2014-03-25 23:30:00,
2014-03-25 18:35:00,23.4,8.8,30.34,NNW,334,6.0,12.0,53,0.00,,,0.00,meteohub,2014-03-25 23:35:00,
2014-03-25 18:40:00,23.4,8.8,30.34,NNW,348,7.0,12.0,53,0.00,,,0.00,meteohub,2014-03-25 23:40:00,
2014-03-25 18:45:00,23.4,8.8,30.33,North,355,3.0,12.0,53,0.00,,,0.00,meteohub,2014-03-25 23:45:00,
2014-03-25 18:50:00,23.4,8.8,30.33,North,355,5.0,11.0,53,0.00,,,0.00,meteohub,2014-03-25 23:50:00,
2014-03-25 18:55:00,23.5,9.0,30.34,North,349,2.0,11.0,53,0.00,,,0.00,meteohub,2014-03-25 23:55:00,
2014-03-25 19:00:00,23.5,9.0,30.33,North,350,0.0,11.0,53,0.00,,,0.00,meteohub,2014-03-26 00:00:00,
2014-03-25 19:05:00,23.4,8.8,30.33,North,0,9.0,9.0,53,0.00,,,0.00,meteohub,2014-03-26 00:05:00,
2014-03-25 19:10:00,23.2,8.6,30.33,North,0,0.0,9.0,53,0.00,,,0.00,meteohub,2014-03-26 00:10:00,
2014-03-25 19:16:00,23.0,8.4,30.33,North,0,4.0,9.0,53,0.00,,,0.00,meteohub,2014-03-26 00:16:00,
2014-03-25 19:21:00,22.8,8.6,30.33,North,0,0.0,9.0,54,0.00,,,0.00,meteohub,2014-03-26 00:21:00,
2014-03-25 19:26:00,22.8,8.6,30.33,North,0,0.0,6.0,54,0.00,,,0.00,meteohub,2014-03-26 00:26:00,
2014-03-25 19:31:00,22.8,8.6,30.33,North,-999,-999.0,4.0,54,0.00,,,0.00,meteohub,2014-03-26 00:31:00,